Celebrity Infinity — 9HJD9 — position and weather

sailwx.info

Track history (hours):
 
Tides and Currents Weather Stations Pressure Air Temp Water Temp Dewpoint Dewpoint Depression Visibility Wind Speed Wind Dir Waves Ship Positions

Celebrity Infinity

Last reported at 2014-Sep-03 01:33 UTC. Time now 2014-Sep-03 02:31 UTC.
Position N 55°22' W 005°05'.

Length 294 m; draft 8.3 m.

Type: Ship. MMSI: 249048000.

Date/timePositionNaut miles runAvg speedWind from/ knotsBaromVisibWave heightAir tempDewpointWater temp
2014-Sep-03 01:33N 55°22' W 005°05'12 8.2
2014-Sep-03 00:06N 55°12' W 005°16'5 7.6
2014-Sep-02 23:26N 55°07' W 005°21'6 7.3
2014-Sep-02 22:33N 55°01' W 005°24'7 7.4
2014-Sep-02 21:33N 54°54' W 005°18'9 8.5
2014-Sep-02 20:33N 54°47' W 005°13'6 5.8
2014-Sep-02 19:33N 54°43' W 005°21'5 9.7
2014-Sep-02 19:00N 54°42' W 005°30'3 7.0 160 / 61023.010.8 16.8 13.8
2014-Sep-02 18:33N 54°43' W 005°35'8 8.2
2014-Sep-02 17:33N 54°41' W 005°48'5 1.0
2014-Sep-02 12:23N 54°37' W 005°54'0 0.0
2014-Sep-02 11:07N 54°37' W 005°54'1 8.7
2014-Sep-02 11:00N 54°36' W 005°54'1 1.5 110 / 71025.0 17.0 14.7
2014-Sep-02 10:16N 54°37' W 005°54'0 0.0
2014-Sep-02 09:21N 54°37' W 005°54'1 0.5
2014-Sep-02 07:00N 54°36' W 005°54'1 1.4 100 / 11025.0 16.8 14.6
2014-Sep-02 06:13N 54°37' W 005°54'1 0.8
2014-Sep-02 05:33N 54°37' W 005°54'6 5.5
2014-Sep-02 04:33N 54°41' W 005°47'10 9.6
2014-Sep-02 03:33N 54°44' W 005°31'1119.0
2014-Sep-02 03:00N 54°36' W 005°18'3 7.9 280 / 61023.0 1.018.0 15.4
2014-Sep-02 02:33N 54°35' W 005°12'1323.0
2014-Sep-02 02:00N 54°24' W 005°00'1 1.5 360 / 31023.027.0 14.3 14.9
2014-Sep-02 01:33N 54°24' W 004°59'1414.4
2014-Sep-02 00:33N 54°11' W 005°09'1713.7
2014-Sep-01 23:17N 53°53' W 005°05'1313.8
2014-Sep-01 22:21N 53°47' W 004°46'1114.0
2014-Sep-01 21:33N 53°43' W 004°28'1414.3
2014-Sep-01 20:33N 53°39' W 004°05'4 7.3
2014-Sep-01 20:00N 53°36' W 004°00'1125.2 320 / 121023.0 1.018.5 15.7
2014-Sep-01 19:33N 53°34' W 003°42'1120.0
2014-Sep-01 19:00N 53°30' W 003°24'4 9.9 340 / 121023.010.8 0.516.8 16.0
2014-Sep-01 18:33N 53°32' W 003°18'9 9.5
2014-Sep-01 17:33N 53°28' W 003°03'5 1.8
2014-Sep-01 15:00N 53°24' W 003°00'0 0.0 320 / 141022.0 17.0 17.0
2014-Sep-01 14:00N 53°24' W 003°00'8 0.8 320 / 161022.027.0 17.0
2014-Sep-01 04:17N 53°31' W 003°07'810.6
2014-Sep-01 03:33N 53°31' W 003°20'1010.1
2014-Sep-01 02:33N 53°31' W 003°37'1111.5
2014-Sep-01 01:33N 53°34' W 003°56'1110.8
2014-Sep-01 00:33N 53°38' W 004°13'10 6.7
2014-Aug-31 23:00N 53°36' W 004°30'3115.5 210 / 201018.0 15.8 17.9
2014-Aug-31 21:00N 53°24' W 005°18'33 5.5 200 / 211018.0 17.0 14.0
2014-Aug-31 15:00N 53°18' W 006°12'0 0.0 140 / 121017.027.0 20.7 14.9
2014-Aug-31 14:00N 53°18' W 006°12'3 0.5 140 / 91017.027.0 20.3 14.9
2014-Aug-31 08:18N 53°21' W 006°13'3 0.1
2014-Aug-30 06:00N 53°18' W 006°12'36 5.2 280 / 171014.0 15.6 14.9
2014-Aug-29 23:00N 53°24' W 005°12'124 8.9 270 / 351009.0 1.017.0 15.0
2014-Aug-29 09:10N 51°35' W 006°47'810.7
2014-Aug-29 08:28N 51°39' W 006°57'910.4
2014-Aug-29 07:34N 51°48' W 006°57'1010.4
2014-Aug-29 06:34N 51°59' W 006°58'8 7.9
2014-Aug-29 05:33N 52°07' W 006°59'1 1.3
2014-Aug-29 04:34N 52°06' W 006°58'1111.0
2014-Aug-29 03:34N 51°55' W 006°57'1111.0
2014-Aug-29 02:33N 51°44' W 006°57'2110.3
2014-Aug-29 00:32N 51°24' W 007°10'1111.4
2014-Aug-28 23:33N 51°22' W 007°28'1010.2
2014-Aug-28 22:34N 51°27' W 007°43'1111.2
2014-Aug-28 21:34N 51°35' W 007°55'1111.3
2014-Aug-28 20:33N 51°42' W 008°09'1010.1
2014-Aug-28 19:33N 51°51' W 008°17'1 0.8
2014-Aug-28 18:31N 51°51' W 008°18'0 0.0
2014-Aug-28 17:31N 51°51' W 008°18'0 0.0
2014-Aug-28 16:33N 51°51' W 008°18'0 0.0
2014-Aug-28 15:33N 51°51' W 008°18'0 0.0
2014-Aug-28 14:32N 51°51' W 008°18'0 0.0
2014-Aug-28 13:32N 51°51' W 008°18'0 0.0
2014-Aug-28 12:32N 51°51' W 008°18'0 0.0
2014-Aug-28 11:31N 51°51' W 008°18'0 0.0
2014-Aug-28 10:31N 51°51' W 008°18'0 0.0
2014-Aug-28 09:33N 51°51' W 008°18'0 0.0
2014-Aug-28 08:33N 51°51' W 008°18'5 5.1
2014-Aug-28 07:34N 51°46' W 008°15'1413.6
2014-Aug-28 06:34N 51°36' W 008°00'1716.9
2014-Aug-28 05:33N 51°25' W 007°40'1933.4
2014-Aug-28 05:00N 51°12' W 007°18'15617.4 250 / 241009.0 5.4 1.016.0 15.6
2014-Aug-27 20:00N 49°30' W 004°12'3617.8 240 / 231010.0 1.020.4 16.4
2014-Aug-27 18:00N 49°24' W 003°18'112 5.7 170 / 321010.0 5.4 0.518.5 16.5
2014-Aug-26 22:29N 49°39' W 000°28'1515.9
2014-Aug-26 21:33N 49°32' W 000°07'1010.1
2014-Aug-26 20:33N 49°29' E 000°07'0 0.4
2014-Aug-26 19:25N 49°29' E 000°07'0 0.0
2014-Aug-26 18:16N 49°29' E 000°07'0 0.0
2014-Aug-26 17:33N 49°29' E 000°07'0 0.0
2014-Aug-26 16:30N 49°29' E 000°07'0 0.0
2014-Aug-26 15:14N 49°29' E 000°07'0 0.0
2014-Aug-26 14:20N 49°29' E 000°07'0 0.0
2014-Aug-26 13:29N 49°29' E 000°07'0 0.0
2014-Aug-26 12:31N 49°29' E 000°07'0 0.0
2014-Aug-26 11:31N 49°29' E 000°07'0 0.0
2014-Aug-26 10:30N 49°29' E 000°07'0 0.0
2014-Aug-26 09:30N 49°29' E 000°07'0 0.0
2014-Aug-26 08:29N 49°29' E 000°07'0 0.0
2014-Aug-26 07:29N 49°29' E 000°07'0 0.0
2014-Aug-26 06:32N 49°29' E 000°07'0 0.0
2014-Aug-26 05:33N 49°29' E 000°07'8 8.3
2014-Aug-26 04:34N 49°31' W 000°06'1413.4
2014-Aug-26 03:33N 49°41' W 000°20'4916.4
2014-Aug-26 00:33N 50°28' E 000°02'1818.4
2014-Aug-25 23:33N 50°34' E 000°29'1717.0
2014-Aug-25 22:33N 50°42' E 000°53'1716.9
2014-Aug-25 21:32N 50°53' E 001°14'1818.7
2014-Aug-25 20:33N 51°06' E 001°34'2020.5
2014-Aug-25 19:34N 51°23' E 001°52'1817.9
2014-Aug-25 18:34N 51°41' E 001°45'1313.1
2014-Aug-25 17:33N 51°52' E 001°34'1010.4
2014-Aug-25 16:33N 51°56' E 001°19'2 2.0
2014-Aug-25 15:32N 51°57' E 001°16'0 0.0
2014-Aug-25 14:31N 51°57' E 001°16'0 0.0
2014-Aug-25 13:31N 51°57' E 001°16'0 0.0
2014-Aug-25 12:33N 51°57' E 001°16'0 0.0
2014-Aug-25 11:33N 51°57' E 001°16'0 0.0
2014-Aug-25 10:33N 51°57' E 001°16'0 0.0
2014-Aug-25 09:32N 51°57' E 001°16'0 0.0
2014-Aug-25 08:32N 51°57' E 001°16'0 0.0
2014-Aug-25 07:31N 51°57' E 001°16'0 0.0
2014-Aug-25 06:31N 51°57' E 001°16'0 0.0
2014-Aug-25 05:33N 51°57' E 001°16'0 0.0
2014-Aug-25 04:33N 51°57' E 001°16'0 0.1
2014-Aug-25 03:33N 51°57' E 001°16'5 4.7
2014-Aug-25 02:33N 51°56' E 001°23'1211.7
2014-Aug-25 01:33N 51°51' E 001°41'1515.0
2014-Aug-25 00:33N 52°05' E 001°52'1616.2
2014-Aug-24 23:33N 52°19' E 002°03'1616.0
2014-Aug-24 22:33N 52°34' E 002°14'10816.4
2014-Aug-24 16:00N 54°12' E 003°30'15016.7 270 / 101017.010.8 0.515.8 16.1
2014-Aug-24 07:00N 56°42' E 003°48'4221.1 330 / 251013.027.0 1.5 13.6
2014-Aug-24 05:00N 57°24' E 003°54'   330 / 251011.0 5.4 1.014.8 14.3
Track history (hours):
 
Tides and Currents Weather Stations Pressure Air Temp Water Temp Dewpoint Dewpoint Depression Visibility Wind Speed Wind Dir Waves Ship Positions

Celebrity Infinity

Last reported at 2014-Sep-03 01:33 UTC. Time now 2014-Sep-03 02:31 UTC.
Position N 55°22' W 005°05'.

Length 294 m; draft 8.3 m.

Type: Ship. MMSI: 249048000.

Date/timePositionNaut miles runAvg speedWind from/ knotsBaromVisibWave heightAir tempDewpointWater temp
2014-Sep-03 01:33N 55°22' W 005°05'12 8.2
2014-Sep-03 00:06N 55°12' W 005°16'5 7.6
2014-Sep-02 23:26N 55°07' W 005°21'6 7.3
2014-Sep-02 22:33N 55°01' W 005°24'7 7.4
2014-Sep-02 21:33N 54°54' W 005°18'9 8.5
2014-Sep-02 20:33N 54°47' W 005°13'6 5.8
2014-Sep-02 19:33N 54°43' W 005°21'5 9.7
2014-Sep-02 19:00N 54°42' W 005°30'3 7.0 160 / 61023.010.8 16.8 13.8
2014-Sep-02 18:33N 54°43' W 005°35'8 8.2
2014-Sep-02 17:33N 54°41' W 005°48'5 1.0
2014-Sep-02 12:23N 54°37' W 005°54'0 0.0
2014-Sep-02 11:07N 54°37' W 005°54'1 8.7
2014-Sep-02 11:00N 54°36' W 005°54'1 1.5 110 / 71025.0 17.0 14.7
2014-Sep-02 10:16N 54°37' W 005°54'0 0.0
2014-Sep-02 09:21N 54°37' W 005°54'1 0.5
2014-Sep-02 07:00N 54°36' W 005°54'1 1.4 100 / 11025.0 16.8 14.6
2014-Sep-02 06:13N 54°37' W 005°54'1 0.8
2014-Sep-02 05:33N 54°37' W 005°54'6 5.5
2014-Sep-02 04:33N 54°41' W 005°47'10 9.6
2014-Sep-02 03:33N 54°44' W 005°31'1119.0
2014-Sep-02 03:00N 54°36' W 005°18'3 7.9 280 / 61023.0 1.018.0 15.4
2014-Sep-02 02:33N 54°35' W 005°12'1323.0
2014-Sep-02 02:00N 54°24' W 005°00'1 1.5 360 / 31023.027.0 14.3 14.9
2014-Sep-02 01:33N 54°24' W 004°59'1414.4
2014-Sep-02 00:33N 54°11' W 005°09'1713.7
2014-Sep-01 23:17N 53°53' W 005°05'1313.8
2014-Sep-01 22:21N 53°47' W 004°46'1114.0
2014-Sep-01 21:33N 53°43' W 004°28'1414.3
2014-Sep-01 20:33N 53°39' W 004°05'4 7.3
2014-Sep-01 20:00N 53°36' W 004°00'1125.2 320 / 121023.0 1.018.5 15.7
2014-Sep-01 19:33N 53°34' W 003°42'1120.0
2014-Sep-01 19:00N 53°30' W 003°24'4 9.9 340 / 121023.010.8 0.516.8 16.0
2014-Sep-01 18:33N 53°32' W 003°18'9 9.5
2014-Sep-01 17:33N 53°28' W 003°03'5 1.8
2014-Sep-01 15:00N 53°24' W 003°00'0 0.0 320 / 141022.0 17.0 17.0
2014-Sep-01 14:00N 53°24' W 003°00'8 0.8 320 / 161022.027.0 17.0
2014-Sep-01 04:17N 53°31' W 003°07'810.6
2014-Sep-01 03:33N 53°31' W 003°20'1010.1
2014-Sep-01 02:33N 53°31' W 003°37'1111.5
2014-Sep-01 01:33N 53°34' W 003°56'1110.8
2014-Sep-01 00:33N 53°38' W 004°13'10 6.7
2014-Aug-31 23:00N 53°36' W 004°30'3115.5 210 / 201018.0 15.8 17.9
2014-Aug-31 21:00N 53°24' W 005°18'33 5.5 200 / 211018.0 17.0 14.0
2014-Aug-31 15:00N 53°18' W 006°12'0 0.0 140 / 121017.027.0 20.7 14.9
2014-Aug-31 14:00N 53°18' W 006°12'3 0.5 140 / 91017.027.0 20.3 14.9
2014-Aug-31 08:18N 53°21' W 006°13'3 0.1
2014-Aug-30 06:00N 53°18' W 006°12'36 5.2 280 / 171014.0 15.6 14.9
2014-Aug-29 23:00N 53°24' W 005°12'124 8.9 270 / 351009.0 1.017.0 15.0
2014-Aug-29 09:10N 51°35' W 006°47'810.7
2014-Aug-29 08:28N 51°39' W 006°57'910.4
2014-Aug-29 07:34N 51°48' W 006°57'1010.4
2014-Aug-29 06:34N 51°59' W 006°58'8 7.9
2014-Aug-29 05:33N 52°07' W 006°59'1 1.3
2014-Aug-29 04:34N 52°06' W 006°58'1111.0
2014-Aug-29 03:34N 51°55' W 006°57'1111.0
2014-Aug-29 02:33N 51°44' W 006°57'2110.3
2014-Aug-29 00:32N 51°24' W 007°10'1111.4
2014-Aug-28 23:33N 51°22' W 007°28'1010.2
2014-Aug-28 22:34N 51°27' W 007°43'1111.2
2014-Aug-28 21:34N 51°35' W 007°55'1111.3
2014-Aug-28 20:33N 51°42' W 008°09'1010.1
2014-Aug-28 19:33N 51°51' W 008°17'1 0.8
2014-Aug-28 18:31N 51°51' W 008°18'0 0.0
2014-Aug-28 17:31N 51°51' W 008°18'0 0.0
2014-Aug-28 16:33N 51°51' W 008°18'0 0.0
2014-Aug-28 15:33N 51°51' W 008°18'0 0.0
2014-Aug-28 14:32N 51°51' W 008°18'0 0.0
2014-Aug-28 13:32N 51°51' W 008°18'0 0.0
2014-Aug-28 12:32N 51°51' W 008°18'0 0.0
2014-Aug-28 11:31N 51°51' W 008°18'0 0.0
2014-Aug-28 10:31N 51°51' W 008°18'0 0.0
2014-Aug-28 09:33N 51°51' W 008°18'0 0.0
2014-Aug-28 08:33N 51°51' W 008°18'5 5.1
2014-Aug-28 07:34N 51°46' W 008°15'1413.6
2014-Aug-28 06:34N 51°36' W 008°00'1716.9
2014-Aug-28 05:33N 51°25' W 007°40'1933.4
2014-Aug-28 05:00N 51°12' W 007°18'15617.4 250 / 241009.0 5.4 1.016.0 15.6
2014-Aug-27 20:00N 49°30' W 004°12'3617.8 240 / 231010.0 1.020.4 16.4
2014-Aug-27 18:00N 49°24' W 003°18'112 5.7 170 / 321010.0 5.4 0.518.5 16.5
2014-Aug-26 22:29N 49°39' W 000°28'1515.9
2014-Aug-26 21:33N 49°32' W 000°07'1010.1
2014-Aug-26 20:33N 49°29' E 000°07'0 0.4
2014-Aug-26 19:25N 49°29' E 000°07'0 0.0
2014-Aug-26 18:16N 49°29' E 000°07'0 0.0
2014-Aug-26 17:33N 49°29' E 000°07'0 0.0
2014-Aug-26 16:30N 49°29' E 000°07'0 0.0
2014-Aug-26 15:14N 49°29' E 000°07'0 0.0
2014-Aug-26 14:20N 49°29' E 000°07'0 0.0
2014-Aug-26 13:29N 49°29' E 000°07'0 0.0
2014-Aug-26 12:31N 49°29' E 000°07'0 0.0
2014-Aug-26 11:31N 49°29' E 000°07'0 0.0
2014-Aug-26 10:30N 49°29' E 000°07'0 0.0
2014-Aug-26 09:30N 49°29' E 000°07'0 0.0
2014-Aug-26 08:29N 49°29' E 000°07'0 0.0
2014-Aug-26 07:29N 49°29' E 000°07'0 0.0
2014-Aug-26 06:32N 49°29' E 000°07'0 0.0
2014-Aug-26 05:33N 49°29' E 000°07'8 8.3
2014-Aug-26 04:34N 49°31' W 000°06'1413.4
2014-Aug-26 03:33N 49°41' W 000°20'4916.4
2014-Aug-26 00:33N 50°28' E 000°02'1818.4
2014-Aug-25 23:33N 50°34' E 000°29'1717.0
2014-Aug-25 22:33N 50°42' E 000°53'1716.9
2014-Aug-25 21:32N 50°53' E 001°14'1818.7
2014-Aug-25 20:33N 51°06' E 001°34'2020.5
2014-Aug-25 19:34N 51°23' E 001°52'1817.9
2014-Aug-25 18:34N 51°41' E 001°45'1313.1
2014-Aug-25 17:33N 51°52' E 001°34'1010.4
2014-Aug-25 16:33N 51°56' E 001°19'2 2.0
2014-Aug-25 15:32N 51°57' E 001°16'0 0.0
2014-Aug-25 14:31N 51°57' E 001°16'0 0.0
2014-Aug-25 13:31N 51°57' E 001°16'0 0.0
2014-Aug-25 12:33N 51°57' E 001°16'0 0.0
2014-Aug-25 11:33N 51°57' E 001°16'0 0.0
2014-Aug-25 10:33N 51°57' E 001°16'0 0.0
2014-Aug-25 09:32N 51°57' E 001°16'0 0.0
2014-Aug-25 08:32N 51°57' E 001°16'0 0.0
2014-Aug-25 07:31N 51°57' E 001°16'0 0.0
2014-Aug-25 06:31N 51°57' E 001°16'0 0.0
2014-Aug-25 05:33N 51°57' E 001°16'0 0.0
2014-Aug-25 04:33N 51°57' E 001°16'0 0.1
2014-Aug-25 03:33N 51°57' E 001°16'5 4.7
2014-Aug-25 02:33N 51°56' E 001°23'1211.7
2014-Aug-25 01:33N 51°51' E 001°41'1515.0
2014-Aug-25 00:33N 52°05' E 001°52'1616.2
2014-Aug-24 23:33N 52°19' E 002°03'1616.0
2014-Aug-24 22:33N 52°34' E 002°14'10816.4
2014-Aug-24 16:00N 54°12' E 003°30'15016.7 270 / 101017.010.8 0.515.8 16.1
2014-Aug-24 07:00N 56°42' E 003°48'4221.1 330 / 251013.027.0 1.5 13.6
2014-Aug-24 05:00N 57°24' E 003°54'   330 / 251011.0 5.4 1.014.8 14.3

Dump ship's entire track history